createdAt,value
2018-07-01T00:00:14.853Z,18.20
2018-07-01T00:03:48.072Z,18.20
2018-07-01T00:07:21.313Z,18.10
2018-07-01T00:10:54.602Z,18.10
2018-07-01T00:25:06.921Z,17.90
2018-07-01T00:28:40.167Z,17.80
2018-07-01T00:32:13.445Z,17.80
2018-07-01T00:35:46.705Z,17.70
2018-07-01T00:39:19.964Z,17.70
2018-07-01T00:42:53.239Z,17.60
2018-07-01T00:46:26.480Z,17.60
2018-07-01T00:49:59.729Z,17.50
2018-07-01T00:53:32.971Z,17.50
2018-07-01T00:57:06.224Z,17.40
2018-07-01T01:00:39.475Z,17.40
2018-07-01T01:07:45.823Z,17.30
2018-07-01T01:11:19.072Z,17.20
2018-07-01T01:18:25.300Z,17.20
2018-07-01T01:21:58.564Z,17.10
2018-07-01T01:25:31.801Z,17.10
2018-07-01T01:29:05.064Z,17.00
2018-07-01T01:32:38.325Z,17.00
2018-07-01T01:36:11.579Z,17.00
2018-07-01T01:43:26.332Z,16.90
2018-07-01T01:47:01.029Z,16.90
2018-07-01T01:50:38.919Z,16.90
2018-07-01T01:54:17.445Z,16.80
2018-07-01T01:58:01.379Z,16.80
2018-07-01T02:01:41.962Z,16.70
2018-07-01T02:08:57.436Z,16.70
2018-07-01T02:12:30.701Z,16.60
2018-07-01T02:16:07.368Z,16.70
2018-07-01T02:19:40.633Z,16.60
2018-07-01T02:23:18.184Z,16.60
2018-07-01T02:26:51.431Z,16.60
2018-07-01T02:30:24.648Z,16.60
2018-07-01T02:33:57.888Z,16.60
2018-07-01T02:37:31.128Z,16.50
2018-07-01T02:41:04.422Z,16.50
2018-07-01T02:44:37.677Z,16.50
2018-07-01T02:48:10.915Z,16.40
2018-07-01T02:51:44.181Z,16.40
2018-07-01T02:55:17.436Z,16.40
2018-07-01T02:58:50.706Z,16.40
2018-07-01T03:02:23.985Z,16.40
2018-07-01T03:05:57.243Z,16.30
2018-07-01T03:13:03.520Z,16.20
2018-07-01T03:16:36.760Z,16.20
2018-07-01T03:20:10.018Z,16.10
2018-07-01T03:23:43.264Z,16.10
2018-07-01T03:27:16.522Z,16.00
2018-07-01T03:30:49.767Z,16.00
2018-07-01T03:34:23.012Z,16.00
2018-07-01T03:37:56.240Z,16.00
2018-07-01T03:41:29.487Z,15.90
2018-07-01T03:45:02.792Z,15.90
2018-07-01T03:48:36.045Z,15.90
2018-07-01T03:52:09.290Z,15.80
2018-07-01T03:55:42.539Z,15.80
2018-07-01T03:59:15.789Z,15.80
2018-07-01T04:02:49.039Z,15.70
2018-07-01T04:06:22.281Z,15.80
2018-07-01T04:09:55.524Z,15.70
2018-07-01T04:13:28.779Z,15.80
2018-07-01T04:17:02.053Z,15.70
2018-07-01T04:20:35.307Z,15.70
2018-07-01T04:24:08.565Z,15.80
2018-07-01T04:27:41.841Z,15.80
2018-07-01T04:31:15.140Z,15.80
2018-07-01T04:34:48.384Z,15.90
2018-07-01T04:38:21.656Z,15.90
2018-07-01T04:41:54.932Z,15.90
2018-07-01T04:49:01.157Z,16.00
2018-07-01T04:52:34.401Z,16.00
2018-07-01T04:56:07.680Z,16.00
2018-07-01T04:59:40.929Z,16.00
2018-07-01T05:06:47.169Z,16.10
2018-07-01T05:10:20.432Z,16.20
2018-07-01T05:13:54.016Z,16.30
2018-07-01T05:17:27.407Z,16.40
2018-07-01T05:21:00.655Z,16.50
2018-07-01T05:24:33.910Z,16.60
2018-07-01T05:28:07.169Z,16.70
2018-07-01T05:31:40.440Z,16.70
2018-07-01T05:35:13.881Z,16.80
2018-07-01T05:38:47.398Z,17.00
2018-07-01T05:42:20.652Z,17.00
2018-07-01T05:45:53.905Z,17.20
2018-07-01T05:49:27.179Z,17.30
2018-07-01T05:53:00.527Z,17.40
2018-07-01T05:56:33.800Z,17.40
2018-07-01T06:00:07.368Z,17.50
2018-07-01T06:03:40.705Z,17.70
2018-07-01T06:07:13.999Z,17.70
2018-07-01T06:10:47.357Z,17.80
2018-07-01T06:14:20.622Z,17.80
2018-07-01T06:17:53.968Z,17.90
2018-07-01T06:21:27.246Z,18.10
2018-07-01T06:25:01.044Z,18.20
2018-07-01T06:28:34.305Z,18.30
2018-07-01T06:32:07.544Z,18.50
2018-07-01T06:35:40.800Z,18.50
2018-07-01T06:39:14.116Z,18.70
2018-07-01T06:42:47.478Z,18.90
2018-07-01T06:46:21.160Z,19.10
2018-07-01T06:49:54.408Z,19.20
2018-07-01T06:53:27.644Z,19.20
2018-07-01T06:57:01.160Z,19.30
2018-07-01T07:00:34.440Z,19.40
2018-07-01T07:04:07.674Z,19.60
2018-07-01T07:07:40.919Z,19.70
2018-07-01T07:11:14.202Z,19.80
2018-07-01T07:14:47.503Z,20.00
2018-07-01T07:21:53.929Z,20.20
2018-07-01T07:25:27.201Z,20.20
2018-07-01T07:29:00.435Z,20.30
2018-07-01T07:32:33.707Z,20.50
2018-07-01T07:36:06.968Z,20.60
2018-07-01T07:39:40.215Z,20.70
2018-07-01T07:43:13.458Z,20.80
2018-07-01T07:46:46.728Z,21.00
2018-07-01T07:50:19.973Z,21.10
2018-07-01T07:53:53.199Z,21.10
2018-07-01T07:57:26.466Z,21.20
2018-07-01T08:00:59.708Z,21.20
2018-07-01T08:04:33.015Z,21.30
2018-07-01T08:08:06.432Z,21.30
2018-07-01T08:11:40.649Z,21.30
2018-07-01T08:15:13.916Z,21.40
2018-07-01T08:18:47.142Z,21.30
2018-07-01T08:22:20.412Z,21.30
2018-07-01T08:36:33.977Z,21.80
2018-07-01T08:40:07.242Z,21.80
2018-07-01T08:43:40.497Z,21.80
2018-07-01T08:47:13.763Z,21.80
2018-07-01T08:50:47.021Z,21.90
2018-07-01T08:57:53.747Z,22.10
2018-07-01T09:01:27.003Z,22.30
2018-07-01T09:05:00.251Z,22.30
2018-07-01T09:08:33.568Z,22.30
2018-07-01T09:12:06.800Z,22.30
2018-07-01T09:15:40.074Z,22.40
2018-07-01T09:19:13.340Z,22.60
2018-07-01T09:22:46.590Z,22.70
2018-07-01T09:26:20.685Z,22.80
2018-07-01T09:30:00.740Z,22.80
2018-07-01T09:33:33.973Z,22.90
2018-07-01T09:37:07.220Z,23.00
2018-07-01T09:40:40.480Z,23.10
2018-07-01T09:44:13.760Z,23.20
2018-07-01T09:47:47.004Z,23.20
2018-07-01T09:51:20.251Z,23.10
2018-07-01T09:54:53.496Z,23.20
2018-07-01T09:58:26.764Z,23.10
2018-07-01T10:02:00.027Z,23.20
2018-07-01T10:05:33.284Z,23.20
2018-07-01T10:09:08.705Z,23.30
2018-07-01T10:12:42.002Z,23.30
2018-07-01T10:16:16.118Z,23.30
2018-07-01T10:19:49.360Z,23.40
2018-07-01T10:23:22.597Z,23.50
2018-07-01T10:26:55.848Z,23.70
2018-07-01T10:30:29.108Z,23.80
2018-07-01T10:34:02.405Z,24.00
2018-07-01T10:37:35.670Z,24.00
2018-07-01T10:41:08.937Z,24.00
2018-07-01T10:44:42.208Z,24.10
2018-07-01T10:48:15.445Z,24.00
2018-07-01T10:51:48.692Z,24.10
2018-07-01T10:55:21.965Z,24.10
2018-07-01T10:58:55.234Z,24.00
2018-07-01T11:02:28.496Z,24.00
2018-07-01T11:06:01.854Z,24.00
2018-07-01T11:09:35.035Z,23.90
2018-07-01T11:13:08.290Z,23.80
2018-07-01T11:16:41.549Z,23.80
2018-07-01T11:20:14.828Z,23.90
2018-07-01T11:23:48.072Z,23.90
2018-07-01T11:27:21.402Z,24.00
2018-07-01T11:30:55.009Z,24.00
2018-07-01T11:34:28.294Z,23.90
2018-07-01T11:38:01.588Z,24.00
2018-07-01T11:41:34.841Z,24.00
2018-07-01T11:45:08.108Z,24.10
2018-07-01T11:48:41.351Z,24.00
2018-07-01T11:52:14.758Z,24.00
2018-07-01T11:55:48.103Z,24.10
2018-07-01T11:59:21.344Z,24.20
2018-07-01T12:02:54.597Z,24.30
2018-07-01T12:10:00.887Z,24.40
2018-07-01T12:17:07.565Z,24.40
2018-07-01T12:20:40.926Z,24.30
2018-07-01T12:24:14.156Z,24.30
2018-07-01T12:27:47.481Z,24.30
2018-07-01T12:31:20.740Z,24.20
2018-07-01T12:34:54.128Z,24.30
2018-07-01T12:38:27.312Z,24.30
2018-07-01T12:42:00.643Z,24.30
2018-07-01T12:45:33.888Z,24.30
2018-07-01T12:49:07.141Z,24.40
2018-07-01T12:52:40.393Z,24.40
2018-07-01T12:56:13.667Z,24.40
2018-07-01T12:59:46.908Z,24.40
2018-07-01T13:03:20.348Z,24.50
2018-07-01T13:06:53.593Z,24.50
2018-07-01T13:10:26.872Z,24.60
2018-07-01T13:14:00.120Z,24.70
2018-07-01T13:17:33.432Z,24.80
2018-07-01T13:21:06.700Z,25.00
2018-07-01T13:28:12.951Z,25.30
2018-07-01T13:31:46.208Z,25.50
2018-07-01T13:42:25.607Z,26.00
2018-07-01T13:45:59.565Z,26.10
2018-07-01T13:49:32.829Z,26.30
2018-07-01T13:53:06.140Z,26.40
2018-07-01T13:56:39.404Z,26.50
2018-07-01T14:03:45.682Z,26.80
2018-07-01T14:07:19.028Z,26.90
2018-07-01T14:10:52.297Z,27.10
2018-07-01T14:14:25.557Z,27.20
2018-07-01T14:17:58.803Z,27.40
2018-07-01T14:25:05.992Z,27.90
2018-07-01T14:28:39.264Z,28.10
2018-07-01T14:32:12.521Z,28.20
2018-07-01T14:39:18.775Z,28.20
2018-07-01T14:42:52.025Z,28.40
2018-07-01T14:46:25.278Z,28.60
2018-07-01T14:49:58.600Z,28.80
2018-07-01T14:53:32.546Z,29.10
2018-07-01T14:57:05.864Z,29.40
2018-07-01T15:00:39.137Z,29.70
2018-07-01T15:07:45.356Z,30.30
2018-07-01T15:11:18.620Z,30.40
2018-07-01T15:14:51.856Z,30.20
2018-07-01T15:18:25.096Z,30.20
2018-07-01T15:21:58.367Z,30.20
2018-07-01T15:25:31.660Z,30.20
2018-07-01T15:29:04.906Z,30.40
2018-07-01T15:32:38.195Z,30.70
2018-07-01T15:36:11.591Z,31.00
2018-07-01T15:39:44.941Z,31.10
2018-07-01T15:43:18.304Z,31.20
2018-07-01T15:46:51.627Z,31.30
2018-07-01T15:50:25.168Z,31.60
2018-07-01T15:53:58.532Z,31.90
2018-07-01T15:57:32.289Z,32.10
2018-07-01T16:01:05.823Z,32.00
2018-07-01T16:04:39.097Z,32.00
2018-07-01T16:08:12.514Z,31.90
2018-07-01T16:11:45.809Z,31.90
2018-07-01T16:15:19.679Z,31.80
2018-07-01T16:18:53.032Z,31.80
2018-07-01T16:22:26.260Z,31.90
2018-07-01T16:26:05.011Z,31.90
2018-07-01T16:29:38.544Z,31.60
2018-07-01T16:33:12.037Z,31.00
2018-07-01T16:36:45.388Z,30.30
2018-07-01T16:40:18.696Z,29.60
2018-07-01T16:43:52.348Z,29.00
2018-07-01T16:47:25.768Z,28.50
2018-07-01T16:50:59.042Z,28.00
2018-07-01T16:58:05.355Z,27.30
2018-07-01T17:01:38.619Z,27.00
2018-07-01T17:05:11.864Z,26.70
2018-07-01T17:08:45.129Z,26.50
2018-07-01T17:12:18.389Z,26.30
2018-07-01T17:15:51.800Z,26.10
2018-07-01T17:19:25.144Z,26.00
2018-07-01T17:26:31.391Z,25.70
2018-07-01T17:30:04.659Z,25.60
2018-07-01T17:33:37.929Z,25.50
2018-07-01T17:37:11.172Z,25.40
2018-07-01T17:40:44.768Z,25.20
2018-07-01T17:44:18.020Z,25.10
2018-07-01T17:47:53.457Z,25.00
2018-07-01T17:51:26.962Z,24.90
2018-07-01T17:55:01.150Z,24.80
2018-07-01T17:58:34.636Z,24.70
2018-07-01T18:02:08.108Z,24.60
2018-07-01T18:05:41.417Z,24.60
2018-07-01T18:12:48.038Z,24.40
2018-07-01T18:16:21.348Z,24.40
2018-07-01T18:19:54.597Z,24.30
2018-07-01T18:23:53.699Z,24.30
2018-07-01T18:27:02.081Z,24.20
2018-07-01T18:30:35.492Z,24.10
2018-07-01T18:34:09.038Z,24.00
2018-07-01T18:37:42.428Z,23.90
2018-07-01T18:41:15.756Z,23.80
2018-07-01T18:44:49.308Z,23.70
2018-07-01T18:48:23.982Z,23.60
2018-07-01T18:51:57.300Z,23.50
2018-07-01T18:55:30.600Z,23.40
2018-07-01T19:02:37.114Z,23.30
2018-07-01T19:09:43.528Z,23.10
2018-07-01T19:13:16.822Z,23.10
2018-07-01T19:16:50.208Z,23.00
2018-07-01T19:23:56.549Z,22.80
2018-07-01T19:27:29.813Z,22.70
2018-07-01T19:31:03.092Z,22.70
2018-07-01T19:34:36.428Z,22.60
2018-07-01T19:38:10.788Z,22.50
2018-07-01T19:41:44.404Z,22.50
2018-07-01T19:45:17.649Z,22.50
2018-07-01T19:48:51.175Z,22.40
2018-07-01T19:52:24.614Z,22.30
2018-07-01T19:55:57.913Z,22.30
2018-07-01T19:59:31.393Z,22.20
2018-07-01T20:03:04.694Z,22.10
2018-07-01T20:06:38.042Z,22.00
2018-07-01T20:10:11.508Z,22.00
2018-07-01T20:13:44.903Z,21.90
2018-07-01T20:17:18.516Z,21.80
2018-07-01T20:20:52.163Z,21.70
2018-07-01T20:24:25.547Z,21.60
2018-07-01T20:27:59.109Z,21.60
2018-07-01T20:31:32.598Z,21.60
2018-07-01T20:38:39.279Z,21.40
2018-07-01T20:42:12.625Z,21.40
2018-07-01T20:45:45.902Z,21.30
2018-07-01T20:49:19.570Z,21.20
2018-07-01T20:52:53.948Z,21.10
2018-07-01T20:56:27.285Z,21.10
2018-07-01T21:00:01.645Z,21.00
2018-07-01T21:03:35.338Z,20.90
2018-07-01T21:07:08.645Z,20.90
2018-07-01T21:10:42.061Z,20.80
2018-07-01T21:14:15.496Z,20.70
2018-07-01T21:17:48.909Z,20.60
2018-07-01T21:21:22.240Z,20.50
2018-07-01T21:24:55.564Z,20.40
2018-07-01T21:28:29.028Z,20.30
2018-07-01T21:32:02.294Z,20.20
2018-07-01T21:35:35.985Z,20.10
2018-07-01T21:39:10.903Z,20.00
2018-07-01T21:42:44.214Z,20.00
2018-07-01T21:46:17.648Z,19.90
2018-07-01T21:49:50.921Z,19.80
2018-07-01T21:53:24.225Z,19.70
2018-07-01T21:56:57.544Z,19.70
2018-07-01T22:00:32.994Z,19.60
2018-07-01T22:04:06.226Z,19.40
2018-07-01T22:07:39.512Z,19.30
2018-07-01T22:11:34.104Z,19.30
2018-07-01T22:18:52.401Z,19.10
2018-07-01T22:22:25.653Z,19.00
2018-07-01T22:25:58.921Z,18.90
2018-07-01T22:29:32.204Z,18.90
2018-07-01T22:33:05.718Z,18.80
2018-07-01T22:36:38.993Z,18.80
2018-07-01T22:40:12.240Z,18.80
2018-07-01T22:43:45.496Z,18.70
2018-07-01T22:47:18.880Z,18.60
2018-07-01T22:50:52.138Z,18.60
2018-07-01T22:54:25.438Z,18.60
2018-07-01T22:57:58.740Z,18.60
2018-07-01T23:01:32.301Z,18.50
2018-07-01T23:08:38.814Z,18.50
2018-07-01T23:12:12.088Z,18.50
2018-07-01T23:15:45.378Z,18.40
2018-07-01T23:19:18.643Z,18.30
2018-07-01T23:22:51.900Z,18.30
2018-07-01T23:33:31.302Z,18.20
2018-07-01T23:37:04.598Z,18.10
2018-07-01T23:40:37.873Z,18.10
2018-07-01T23:44:11.164Z,18.00
2018-07-01T23:47:44.447Z,17.90
2018-07-01T23:51:17.714Z,17.90
2018-07-01T23:54:50.952Z,17.80
2018-07-01T23:58:24.230Z,17.70
